Time;durP1;ratioP1;P1;durP2;ratioP2;P2;SDS_P1;SDS_P2;PMS_P1;PMS_P2;Temp;Humidity;BMP_temperature;BMP_pressure;BME280_temperature;BME280_humidity;BME280_pressure;Samples;Min_cycle;Max_cycle;Signal;HPM_P1;HPM_P2
2022/04/20 00:01:36;;;;;;;0.93;0.20;;;;;;;19.72;42.88;100220.63;4985377;28;20061;-44
2022/04/20 00:04:02;;;;;;;0.50;0.10;;;;;;;19.73;42.70;100230.97;4986233;28;20030;-45
2022/04/20 00:06:30;;;;;;;0.60;0.20;;;;;;;19.71;42.58;100222.44;4984253;28;20120;-47
2022/04/20 00:08:55;;;;;;;0.93;0.10;;;;;;;19.71;42.81;100219.00;4984528;28;20030;-45
2022/04/20 00:11:21;;;;;;;1.05;0.20;;;;;;;19.72;42.48;100212.69;4984370;28;20050;-44
2022/04/20 00:13:46;;;;;;;1.85;0.20;;;;;;;19.69;42.70;100211.28;4981969;28;20062;-46
2022/04/20 00:16:11;;;;;;;0.40;0.10;;;;;;;19.71;42.63;100214.53;4984740;28;20026;-48
2022/04/20 00:18:37;;;;;;;1.00;0.15;;;;;;;19.71;42.66;100203.13;4984787;28;20124;-46
2022/04/20 00:21:02;;;;;;;0.70;0.20;;;;;;;19.70;42.22;100199.69;4983124;28;20118;-45
2022/04/20 00:23:28;;;;;;;0.40;0.10;;;;;;;19.71;42.36;100203.13;4981648;28;20030;-46
2022/04/20 00:25:53;;;;;;;2.25;0.20;;;;;;;19.70;41.98;100197.03;4983573;28;20045;-47
2022/04/20 00:28:18;;;;;;;1.70;0.20;;;;;;;19.70;41.97;100204.97;4977966;28;20556;-45
2022/04/20 00:30:44;;;;;;;0.70;0.10;;;;;;;19.72;42.07;100197.66;4982634;28;20033;-44
2022/04/20 00:33:09;;;;;;;1.45;0.20;;;;;;;19.73;41.90;100204.56;4986080;28;20062;-45
2022/04/20 00:35:35;;;;;;;0.90;0.30;;;;;;;19.73;41.70;100198.47;4975860;28;20031;-47
2022/04/20 00:38:00;;;;;;;1.55;0.10;;;;;;;19.74;41.85;100210.66;4987400;28;20437;-45
2022/04/20 00:40:26;;;;;;;0.90;0.20;;;;;;;19.73;41.68;100209.03;4984138;28;20165;-44
2022/04/20 00:42:51;;;;;;;0.73;0.10;;;;;;;19.73;41.64;100211.66;4983228;28;20030;-46
2022/04/20 00:45:17;;;;;;;0.63;0.10;;;;;;;19.74;41.63;100216.75;4979883;28;20037;-45
2022/04/20 00:47:43;;;;;;;0.50;0.10;;;;;;;19.74;41.66;100218.59;4979803;28;20022;-44
2022/04/20 00:50:10;;;;;;;1.27;0.35;;;;;;;19.74;41.48;100218.59;4985405;28;20036;-50
2022/04/20 00:52:36;;;;;;;1.38;0.20;;;;;;;19.74;41.44;100221.22;4983481;28;20528;-44
2022/04/20 00:55:03;;;;;;;0.82;0.20;;;;;;;19.72;41.42;100217.97;4986032;28;20026;-43
2022/04/20 00:57:28;;;;;;;0.30;0.10;;;;;;;19.71;41.65;100211.88;4977904;28;20491;-45
2022/04/20 00:59:57;;;;;;;0.60;0.20;;;;;;;19.71;41.49;100216.34;4981992;28;20049;-47
2022/04/20 01:02:23;;;;;;;0.38;0.10;;;;;;;19.71;41.42;100211.06;4983837;28;20395;-44
2022/04/20 01:04:49;;;;;;;0.93;0.10;;;;;;;19.69;41.19;100213.91;4984238;28;20638;-48
2022/04/20 01:07:16;;;;;;;0.40;0.10;;;;;;;19.71;41.10;100213.72;4982815;28;20019;-43
2022/04/20 01:09:43;;;;;;;0.30;0.10;;;;;;;19.69;40.98;100219.22;4984374;28;20042;-46
2022/04/20 01:12:09;;;;;;;0.55;0.20;;;;;;;19.68;41.09;100216.78;4984695;28;20038;-45
2022/04/20 01:14:35;;;;;;;1.02;0.10;;;;;;;19.68;41.10;100216.78;4983728;28;20077;-46
2022/04/20 01:17:01;;;;;;;2.75;0.10;;;;;;;19.68;41.38;100216.78;4984617;28;20035;-45
2022/04/20 01:19:34;;;;;;;1.38;0.10;;;;;;;19.65;41.23;100225.94;4995519;28;20041;-46
2022/04/20 01:22:02;;;;;;;0.57;0.15;;;;;;;19.65;41.30;100223.28;4985140;28;20430;-47
2022/04/20 01:24:28;;;;;;;0.40;0.10;;;;;;;19.65;41.24;100220.66;4984386;28;20034;-46
2022/04/20 01:26:56;;;;;;;0.85;0.20;;;;;;;19.65;40.97;100225.13;4984620;28;20045;-45
2022/04/20 01:29:22;;;;;;;1.05;0.10;;;;;;;19.64;41.09;100223.50;4987008;28;20031;-45
2022/04/20 01:31:47;;;;;;;0.80;0.10;;;;;;;19.64;41.03;100226.13;4987825;28;20022;-49
2022/04/20 01:34:13;;;;;;;0.45;0.10;;;;;;;19.63;41.17;100225.31;4985722;28;20034;-46
2022/04/20 01:36:38;;;;;;;0.60;0.10;;;;;;;19.62;41.18;100214.97;4983895;28;20054;-45
2022/04/20 01:39:04;;;;;;;1.00;0.10;;;;;;;19.62;41.36;100228.19;4983393;28;20066;-45
2022/04/20 01:41:30;;;;;;;0.85;0.20;;;;;;;19.61;41.21;100223.91;4985427;28;20085;-46
2022/04/20 01:43:56;;;;;;;1.30;0.20;;;;;;;19.61;41.06;100231.84;4986201;28;20065;-46
2022/04/20 01:46:21;;;;;;;1.23;0.20;;;;;;;19.58;41.11;100224.31;4976141;28;20113;-46
2022/04/20 01:48:47;;;;;;;1.45;0.20;;;;;;;19.58;41.12;100227.78;4984474;28;20037;-53
2022/04/20 01:53:56;;;;;;;1.23;0.10;;;;;;;19.55;41.25;100229.00;4983857;28;20053;-48
2022/04/20 01:56:21;;;;;;;0.60;0.10;;;;;;;19.55;41.19;100229.00;4979792;28;20072;-44
2022/04/20 01:58:47;;;;;;;0.77;0.10;;;;;;;19.55;41.27;100220.28;4985292;28;20023;-47
2022/04/20 02:03:56;;;;;;;0.32;0.10;;;;;;;19.53;41.02;100220.47;4982907;28;20126;-46
2022/04/20 02:06:21;;;;;;;0.47;0.08;;;;;;;19.54;41.15;100221.28;4983573;28;20113;-45
2022/04/20 02:08:47;;;;;;;1.55;0.10;;;;;;;19.54;40.70;100221.28;4985173;28;20030;-48
2022/04/20 02:13:37;;;;;;;0.70;0.10;;;;;;;19.54;40.89;100229.22;4918318;23;20519;-46
2022/04/20 02:16:03;;;;;;;1.67;0.10;;;;;;;19.54;40.71;100237.94;4986800;28;20030;-46
2022/04/20 02:18:29;;;;;;;0.43;0.10;;;;;;;19.55;40.86;100244.06;4985027;28;20486;-48
2022/04/20 02:20:54;;;;;;;1.38;0.10;;;;;;;19.57;40.85;100241.19;4985980;28;20381;-44
2022/04/20 02:23:19;;;;;;;1.92;0.10;;;;;;;19.55;40.83;100239.56;4986507;28;20041;-47
2022/04/20 02:25:45;;;;;;;1.10;0.57;;;;;;;19.56;40.67;100245.69;4984845;28;20061;-46
2022/04/20 02:28:10;;;;;;;0.60;0.10;;;;;;;19.57;40.68;100243.84;4986398;28;20053;-46
2022/04/20 02:30:36;;;;;;;0.32;0.10;;;;;;;19.57;40.72;100243.84;4984949;28;20105;-46
2022/04/20 02:33:01;;;;;;;0.65;0.10;;;;;;;19.58;40.74;100245.47;4984693;28;20454;-46
2022/04/20 02:35:27;;;;;;;0.73;0.10;;;;;;;19.58;40.61;100242.81;4985290;28;20049;-46
2022/04/20 02:37:53;;;;;;;0.77;0.10;;;;;;;19.58;40.69;100242.81;4989416;28;20104;-46
2022/04/20 02:40:19;;;;;;;0.30;0.10;;;;;;;19.60;40.43;100235.50;4989199;28;20431;-49
2022/04/20 02:42:45;;;;;;;0.63;0.10;;;;;;;19.60;40.67;100240.78;4990156;28;20064;-49
2022/04/20 02:45:10;;;;;;;1.15;0.10;;;;;;;19.59;40.43;100245.25;4988746;28;20117;-50
2022/04/20 02:47:36;;;;;;;0.73;0.20;;;;;;;19.60;40.58;100251.34;4987625;28;20046;-47
2022/04/20 02:50:01;;;;;;;2.05;0.10;;;;;;;19.58;40.62;100245.47;4989752;28;20615;-45
2022/04/20 02:52:27;;;;;;;0.43;0.10;;;;;;;19.58;40.34;100241.00;4988442;28;20714;-45
2022/04/20 02:54:52;;;;;;;0.28;0.10;;;;;;;19.56;40.44;100245.69;4989093;28;20026;-49
2022/04/20 02:57:18;;;;;;;0.63;0.10;;;;;;;19.54;40.58;100248.53;4989387;28;20093;-45
2022/04/20 02:59:44;;;;;;;0.45;0.10;;;;;;;19.55;40.71;100246.69;4988060;28;20144;-49
2022/04/20 03:02:09;;;;;;;0.45;0.10;;;;;;;19.53;40.62;100240.81;4987906;28;20546;-49
2022/04/20 03:04:35;;;;;;;0.30;0.10;;;;;;;19.52;40.56;100242.63;4989244;28;20050;-46
2022/04/20 03:07:00;;;;;;;0.10;0.00;;;;;;;19.52;40.68;100244.47;4989445;28;20061;-51
2022/04/20 03:09:26;;;;;;;0.88;0.10;;;;;;;19.52;40.63;100247.09;4988900;28;20558;-45
2022/04/20 03:11:51;;;;;;;0.30;0.10;;;;;;;19.51;40.71;100248.94;4988115;28;20039;-49
2022/04/20 03:14:18;;;;;;;0.25;0.10;;;;;;;19.51;40.67;100243.66;4988692;28;20480;-49
2022/04/20 03:16:44;;;;;;;0.32;0.10;;;;;;;19.50;40.46;100236.72;4986059;28;20027;-47
2022/04/20 03:19:09;;;;;;;0.82;0.10;;;;;;;19.51;40.41;100238.38;4987181;28;20432;-45
2022/04/20 03:21:35;;;;;;;0.65;0.10;;;;;;;19.51;40.35;100238.38;4989303;28;20041;-46
2022/04/20 03:24:00;;;;;;;0.20;0.10;;;;;;;19.50;40.72;100230.63;4988182;28;20026;-48
2022/04/20 03:26:25;;;;;;;0.20;0.10;;;;;;;19.50;40.49;100234.06;4989344;28;20033;-48
2022/04/20 03:28:51;;;;;;;1.08;0.10;;;;;;;19.48;40.52;100241.41;4988043;28;20030;-45
2022/04/20 03:31:17;;;;;;;0.73;0.10;;;;;;;19.49;40.51;100239.56;4987071;28;20080;-44
2022/04/20 03:33:42;;;;;;;0.75;0.22;;;;;;;19.47;40.52;100241.59;4987378;28;20121;-45
2022/04/20 03:36:08;;;;;;;1.00;0.10;;;;;;;19.47;40.78;100242.41;4989280;28;20347;-46
2022/04/20 03:38:34;;;;;;;0.47;0.10;;;;;;;19.45;40.69;100244.44;4988164;28;20037;-47
2022/04/20 03:41:03;;;;;;;0.75;0.10;;;;;;;19.45;40.97;100249.72;4988883;28;20045;-45
2022/04/20 03:43:28;;;;;;;0.25;0.10;;;;;;;19.44;40.92;100245.47;4987593;28;20038;-45
2022/04/20 03:45:53;;;;;;;0.95;0.10;;;;;;;19.43;40.77;100241.19;4988132;28;20513;-47
2022/04/20 03:48:19;;;;;;;0.30;0.05;;;;;;;19.43;40.84;100245.69;4987037;28;20374;-46
2022/04/20 03:50:44;;;;;;;0.20;0.10;;;;;;;19.41;40.91;100245.88;4988976;28;20030;-50
2022/04/20 03:53:10;;;;;;;1.75;0.10;;;;;;;19.42;40.76;100251.97;4988134;28;20118;-46
2022/04/20 03:55:35;;;;;;;0.60;0.13;;;;;;;19.40;40.53;100249.53;4987757;28;20038;-45
2022/04/20 03:58:01;;;;;;;1.48;0.10;;;;;;;19.40;40.50;100260.09;4987756;28;20026;-46
2022/04/20 04:00:26;;;;;;;0.38;0.10;;;;;;;19.38;40.35;100254.22;4987922;28;20034;-46
2022/04/20 04:02:52;;;;;;;0.35;0.10;;;;;;;19.39;40.41;100266.41;4986842;28;20042;-46
2022/04/20 04:05:18;;;;;;;0.60;0.10;;;;;;;19.38;40.09;100267.44;4987478;28;20457;-45
2022/04/20 04:07:43;;;;;;;0.75;0.20;;;;;;;19.37;40.42;100268.47;4987211;28;20074;-45
2022/04/20 04:10:09;;;;;;;0.57;0.10;;;;;;;19.37;40.34;100273.75;4988338;28;20034;-50
2022/04/20 04:12:35;;;;;;;0.45;0.10;;;;;;;19.37;40.28;100273.75;4987521;28;20076;-48
2022/04/20 04:15:00;;;;;;;0.20;0.10;;;;;;;19.37;40.34;100271.13;4987070;28;20045;-44
2022/04/20 04:17:26;;;;;;;1.90;0.10;;;;;;;19.37;40.19;100273.75;4984450;28;20034;-49
2022/04/20 04:19:51;;;;;;;0.25;0.10;;;;;;;19.37;40.40;100281.69;4986494;28;20022;-52
2022/04/20 04:22:17;;;;;;;0.93;0.10;;;;;;;19.37;40.59;100276.41;4986162;28;20022;-56
2022/04/20 04:24:42;;;;;;;4.28;0.20;;;;;;;19.42;41.62;100281.03;4987545;28;20026;-52
2022/04/20 04:27:10;;;;;;;6.30;0.20;;;;;;;19.51;42.50;100291.22;4986439;28;20108;-53
2022/04/20 04:29:38;;;;;;;1.75;0.52;;;;;;;19.57;43.88;100284.28;4988043;28;20073;-51
2022/04/20 04:32:04;;;;;;;8.02;0.30;;;;;;;19.57;43.47;100296.69;4985756;28;20312;-57
2022/04/20 04:34:29;;;;;;;2.22;0.45;;;;;;;19.54;43.15;100290.81;4986880;28;20034;-53
2022/04/20 04:36:55;;;;;;;0.93;0.10;;;;;;;19.53;42.50;100306.88;4986632;28;20791;-58
2022/04/20 04:39:22;;;;;;;5.15;0.10;;;;;;;19.52;42.58;100302.59;4988026;28;20552;-58
2022/04/20 04:41:51;;;;;;;1.05;0.10;;;;;;;19.52;42.04;100303.41;4987002;28;20023;-57
2022/04/20 04:44:18;;;;;;;2.72;0.15;;;;;;;19.52;42.00;100303.41;4985406;28;20035;-51
2022/04/20 04:49:28;;;;;;;1.05;0.10;;;;;;;19.54;41.82;100322.50;4984281;28;20049;-57
2022/04/20 04:51:55;;;;;;;0.82;0.10;;;;;;;19.53;41.86;100320.88;4987184;28;20026;-53
2022/04/20 04:54:21;;;;;;;1.48;0.10;;;;;;;19.54;41.49;100319.06;4986784;28;20077;-53
2022/04/20 04:56:46;;;;;;;1.80;0.10;;;;;;;19.52;41.48;100318.44;4986597;28;20066;-55
2022/04/20 04:59:12;;;;;;;2.50;0.10;;;;;;;19.51;41.45;100338.78;4983479;28;20560;-50
2022/04/20 05:01:37;;;;;;;2.38;0.10;;;;;;;19.50;41.39;100337.13;4983911;28;20038;-51
2022/04/20 05:04:03;;;;;;;3.10;0.10;;;;;;;19.50;41.44;100341.59;4984725;28;20091;-53
2022/04/20 05:06:29;;;;;;;1.55;0.10;;;;;;;19.50;41.34;100344.22;4984910;28;20034;-50
2022/04/20 05:08:54;;;;;;;2.88;0.20;;;;;;;19.48;41.14;100354.19;4986425;28;20049;-50
2022/04/20 05:11:20;;;;;;;2.17;0.10;;;;;;;19.48;41.20;100356.84;4986092;28;20045;-50
2022/04/20 05:13:46;;;;;;;1.45;0.10;;;;;;;19.48;41.16;100367.41;4987255;28;20036;-52
2022/04/20 05:16:12;;;;;;;0.60;0.13;;;;;;;19.47;41.08;100358.66;4985800;28;20030;-52
2022/04/20 05:18:38;;;;;;;0.40;0.10;;;;;;;19.46;40.99;100367.59;4986520;28;20129;-52
2022/04/20 05:21:03;;;;;;;1.15;0.10;;;;;;;19.47;40.86;100371.88;4986075;28;20596;-54
2022/04/20 05:23:29;;;;;;;0.70;0.10;;;;;;;19.48;40.78;100372.69;5001300;28;20058;-56
2022/04/20 05:25:54;;;;;;;0.40;0.10;;;;;;;19.47;40.99;100371.88;4987077;28;20030;-55
2022/04/20 05:28:20;;;;;;;3.55;0.20;;;;;;;19.48;41.14;100364.75;4986023;28;20027;-53
2022/04/20 05:30:45;;;;;;;3.50;0.10;;;;;;;19.47;41.14;100374.53;4985737;28;20465;-51
2022/04/20 05:33:12;;;;;;;1.05;0.10;;;;;;;19.47;41.03;100373.72;4986870;28;20037;-49
2022/04/20 05:35:37;;;;;;;0.47;0.10;;;;;;;19.47;40.88;100368.41;4985375;28;20297;-52
2022/04/20 05:43:30;;;;;;;1.45;0.08;;;;;;;19.44;41.31;100374.13;4986169;28;20049;-53
2022/04/20 05:45:56;;;;;;;2.00;0.35;;;;;;;19.43;41.27;100377.78;4985325;28;20034;-51
2022/04/20 05:48:21;;;;;;;1.40;0.10;;;;;;;19.42;41.44;100374.31;4986814;28;20022;-53
2022/04/20 05:50:47;;;;;;;0.63;0.10;;;;;;;19.41;41.37;100375.34;4985947;28;20117;-53
2022/04/20 05:53:12;;;;;;;0.60;0.10;;;;;;;19.41;41.46;100372.69;4987335;28;20165;-52
2022/04/20 05:55:38;;;;;;;1.77;0.10;;;;;;;19.41;41.50;100380.63;4986093;28;20397;-55
2022/04/20 05:58:03;;;;;;;0.45;0.05;;;;;;;19.41;41.36;100379.81;4987168;28;20069;-50
2022/04/20 06:00:30;;;;;;;0.38;0.10;;;;;;;19.38;41.63;100375.75;4985610;28;20471;-49
2022/04/20 06:02:56;;;;;;;0.30;0.10;;;;;;;19.39;41.43;100376.56;4985134;28;20153;-52
2022/04/20 06:05:22;;;;;;;0.63;0.10;;;;;;;19.38;41.28;100385.50;4984926;28;20322;-50
2022/04/20 06:07:48;;;;;;;0.20;0.10;;;;;;;19.38;41.55;100370.44;4983586;28;20257;-54
2022/04/20 06:10:13;;;;;;;1.77;0.10;;;;;;;19.37;41.34;100378.63;4986342;28;20133;-51
2022/04/20 06:12:39;;;;;;;0.38;0.10;;;;;;;19.37;41.33;100379.44;4989307;28;20054;-49
2022/04/20 06:15:06;;;;;;;0.40;0.10;;;;;;;19.36;41.29;100382.28;4988986;28;20109;-50
2022/04/20 06:17:32;;;;;;;0.20;0.10;;;;;;;19.35;41.50;100386.75;4989296;28;20030;-50
2022/04/20 06:19:57;;;;;;;3.22;0.10;;;;;;;19.35;41.42;100389.38;4988184;28;20030;-53
2022/04/20 06:22:23;;;;;;;1.85;0.10;;;;;;;19.36;41.41;100387.56;4989077;28;20497;-50
2022/04/20 06:24:48;;;;;;;0.55;0.10;;;;;;;19.37;41.38;100395.28;4989270;28;20030;-53
2022/04/20 06:27:15;;;;;;;0.73;0.10;;;;;;;19.38;41.32;100388.94;4988623;28;20951;-53
2022/04/20 06:29:40;;;;;;;0.57;0.10;;;;;;;19.40;41.30;100386.91;4988498;28;20173;-53
2022/04/20 06:32:06;;;;;;;0.35;0.10;;;;;;;19.41;41.44;100390.38;4987945;28;20034;-48
2022/04/20 06:34:32;;;;;;;0.47;0.10;;;;;;;19.41;41.60;100388.53;4985615;28;20574;-48
2022/04/20 06:36:57;;;;;;;2.10;0.10;;;;;;;19.43;41.99;100389.16;4987095;28;20338;-51
2022/04/20 06:39:23;;;;;;;2.00;0.10;;;;;;;19.46;42.62;100383.47;4988738;28;20031;-48
2022/04/20 06:41:48;;;;;;;2.70;0.17;;;;;;;19.51;43.58;100383.69;4988330;28;20033;-48
2022/04/20 06:44:14;;;;;;;0.90;0.17;;;;;;;19.52;43.40;100390.59;4987002;28;20030;-53
2022/04/20 06:46:39;;;;;;;3.88;0.20;;;;;;;19.51;43.38;100391.63;4986484;28;20041;-59
2022/04/20 06:49:06;;;;;;;0.32;0.13;;;;;;;19.50;43.91;100392.59;4988351;28;20045;-53
2022/04/20 06:58:31;;;;;;;1.15;0.10;;;;;;;19.49;43.75;100396.25;4988574;28;20042;-55
2022/04/20 06:59:45;;;;;;;0.22;0.05;;;;;;;19.46;43.09;100409.06;4990270;28;20049;-60
2022/04/20 07:02:11;;;;;;;0.45;0.10;;;;;;;19.45;43.21;100402.16;4987109;28;20034;-53
2022/04/20 07:04:36;;;;;;;4.82;0.20;;;;;;;19.46;43.14;100395.84;4987336;28;20026;-51
2022/04/20 07:07:02;;;;;;;3.40;0.10;;;;;;;19.45;42.82;100402.16;4988132;28;20457;-54
2022/04/20 07:09:27;;;;;;;2.97;0.10;;;;;;;19.44;43.14;100401.34;4986595;28;20036;-52
2022/04/20 07:11:53;;;;;;;1.13;0.10;;;;;;;19.46;43.12;100403.78;4986782;28;20124;-48
2022/04/20 07:14:18;;;;;;;5.72;1.05;;;;;;;19.45;43.64;100400.31;4985120;28;20092;-49
2022/04/20 07:16:44;;;;;;;6.22;0.32;;;;;;;19.46;43.94;100393.22;4986656;28;20502;-50
2022/04/20 07:19:09;;;;;;;4.68;0.20;;;;;;;19.45;44.11;100402.97;4985655;28;20473;-59
2022/04/20 07:21:34;;;;;;;9.50;0.43;;;;;;;19.44;44.13;100396.06;4987460;28;20327;-56
2022/04/20 07:24:00;;;;;;;9.55;0.93;;;;;;;19.44;44.22;100395.25;4984877;28;20033;-61
2022/04/20 07:26:26;;;;;;;7.20;0.40;;;;;;;19.44;43.92;100396.06;4985950;28;20226;-47
2022/04/20 07:28:51;;;;;;;8.93;0.30;;;;;;;19.41;43.45;100400.94;4987214;28;20018;-45
2022/04/20 07:31:17;;;;;;;4.38;1.00;;;;;;;19.40;42.78;100402.75;4987963;28;20037;-44
2022/04/20 07:33:42;;;;;;;5.10;0.20;;;;;;;19.41;41.91;100401.75;4988021;28;20022;-46
2022/04/20 07:36:08;;;;;;;4.25;0.10;;;;;;;19.40;40.99;100399.31;4985300;28;20125;-44
2022/04/20 07:38:33;;;;;;;0.73;0.10;;;;;;;19.41;40.13;100395.66;4988528;28;20033;-42
2022/04/20 07:41:00;;;;;;;0.55;0.10;;;;;;;19.42;39.74;100397.28;4983629;28;20038;-45
2022/04/20 07:43:25;;;;;;;3.38;0.10;;;;;;;19.40;38.94;100394.03;4987928;28;20500;-43
2022/04/20 07:45:51;;;;;;;0.93;0.20;;;;;;;19.40;38.56;100392.19;4981967;28;20177;-44
2022/04/20 07:48:16;;;;;;;1.00;0.17;;;;;;;19.40;38.24;100391.38;4987443;28;20034;-44
2022/04/20 07:50:42;;;;;;;0.68;0.20;;;;;;;19.39;38.09;100398.50;4986958;28;20448;-45
2022/04/20 07:53:07;;;;;;;0.82;0.10;;;;;;;19.38;37.99;100391.59;4987729;28;20034;-45
2022/04/20 07:55:37;;;;;;;0.40;0.10;;;;;;;19.36;37.92;100384.91;4985089;28;20129;-46
2022/04/20 07:58:03;;;;;;;1.80;0.10;;;;;;;19.38;37.68;100393.41;4984111;28;20026;-45
2022/04/20 08:00:29;;;;;;;0.60;0.10;;;;;;;19.37;37.56;100389.19;4984876;28;20044;-46
2022/04/20 08:03:15;;;;;;;0.77;0.20;;;;;;;19.32;37.65;100397.72;4988655;28;20030;-44
2022/04/20 08:05:42;;;;;;;0.95;0.20;;;;;;;19.33;37.53;100394.06;4984791;28;20687;-45
2022/04/20 08:08:09;;;;;;;1.75;0.10;;;;;;;19.33;37.60;100403.81;4987182;28;20057;-43
2022/04/20 08:10:34;;;;;;;1.42;0.45;;;;;;;19.33;37.83;100393.25;4980221;28;21005;-43
2022/04/20 08:14:09;;;;;;;1.75;0.25;;;;;;;19.32;38.00;100395.06;4987124;28;20529;-47
2022/04/20 08:15:45;;;;;;;1.30;0.20;;;;;;;19.31;38.49;100400.56;4986047;28;20050;-44
2022/04/20 08:18:11;;;;;;;1.95;0.13;;;;;;;19.31;38.61;100398.72;4984358;28;20030;-44
2022/04/20 08:20:36;;;;;;;0.45;0.10;;;;;;;19.32;38.48;100408.28;4985882;28;20469;-45
2022/04/20 08:23:02;;;;;;;0.60;0.20;;;;;;;19.31;38.48;100406.66;4985726;28;20386;-46
2022/04/20 08:25:27;;;;;;;1.50;0.10;;;;;;;19.31;38.38;100400.56;4984832;28;20030;-45
2022/04/20 08:27:53;;;;;;;2.35;0.15;;;;;;;19.31;38.42;100404.00;4988006;28;20431;-47
2022/04/20 08:30:18;;;;;;;0.82;0.20;;;;;;;19.31;38.31;100401.38;4986097;28;20484;-44
2022/04/20 08:32:43;;;;;;;1.30;0.10;;;;;;;19.31;38.12;100390.81;4987382;28;20034;-44
2022/04/20 08:35:09;;;;;;;0.75;0.10;;;;;;;19.32;38.14;100391.63;4985687;28;20026;-45
2022/04/20 08:37:34;;;;;;;0.85;0.10;;;;;;;19.33;38.09;100394.06;4988066;28;20034;-44
2022/04/20 08:40:00;;;;;;;0.40;0.10;;;;;;;19.34;37.86;100390.41;4985797;28;20039;-46
2022/04/20 08:42:29;;;;;;;4.03;0.10;;;;;;;19.35;37.79;100389.38;4987672;28;20201;-45
2022/04/20 08:45:01;;;;;;;2.05;0.40;;;;;;;19.36;37.80;100387.56;4986655;28;20075;-47
2022/04/20 08:47:29;;;;;;;1.90;0.10;;;;;;;19.36;37.77;100384.91;4976658;28;20076;-44
2022/04/20 08:49:56;;;;;;;1.20;0.10;;;;;;;19.37;37.58;100382.06;4986186;28;20047;-43
2022/04/20 08:52:39;;;;;;;1.33;0.10;;;;;;;19.38;37.86;100385.50;4986414;28;20080;-46
2022/04/20 08:55:07;;;;;;;0.50;0.13;;;;;;;19.38;37.69;100385.50;4985932;28;20311;-46
2022/04/20 08:57:33;;;;;;;0.52;0.10;;;;;;;19.39;37.49;100382.66;4986729;28;20469;-45
2022/04/20 08:59:59;;;;;;;2.92;0.10;;;;;;;19.39;37.18;100384.47;4986574;28;20038;-49
2022/04/20 09:02:25;;;;;;;0.35;0.20;;;;;;;19.39;37.32;100382.66;4986481;28;20397;-45
2022/04/20 09:04:55;;;;;;;0.43;0.10;;;;;;;19.38;37.38;100374.94;4986695;28;20042;-46
2022/04/20 09:07:20;;;;;;;0.32;0.10;;;;;;;19.38;37.46;100382.84;4986008;28;20044;-45
2022/04/20 09:09:46;;;;;;;1.13;0.15;;;;;;;19.36;37.50;100377.00;4986589;28;20125;-45
2022/04/20 09:12:16;;;;;;;0.32;0.10;;;;;;;19.35;37.66;100378.81;4986411;28;20047;-47
2022/04/20 09:14:45;;;;;;;0.30;0.10;;;;;;;19.35;37.86;100383.28;5000917;28;20548;-45
2022/04/20 09:17:12;;;;;;;2.47;0.10;;;;;;;19.34;38.01;100381.66;4972941;28;20069;-46
2022/04/20 09:19:39;;;;;;;1.27;0.10;;;;;;;19.34;38.02;100376.38;4983866;28;20030;-46
2022/04/20 09:22:24;;;;;;;0.80;0.20;;;;;;;19.30;38.31;100383.91;4983934;28;20490;-44
2022/04/20 09:24:57;;;;;;;0.50;0.20;;;;;;;19.31;38.55;100387.34;4973279;28;20193;-46
2022/04/20 09:27:23;;;;;;;1.95;0.10;;;;;;;19.31;38.50;100384.72;4977236;28;20177;-48
2022/04/20 09:29:56;;;;;;;1.33;0.40;;;;;;;19.30;38.51;100378.59;4995339;28;20057;-45
2022/04/20 09:32:36;;;;;;;2.05;0.30;;;;;;;19.30;39.41;100389.19;4980908;28;20095;-45
2022/04/20 09:35:03;;;;;;;3.72;0.28;;;;;;;19.37;41.03;100389.19;4981720;28;20174;-46
2022/04/20 09:37:29;;;;;;;0.77;0.20;;;;;;;19.41;40.95;100395.66;4981706;28;20541;-45
2022/04/20 09:39:55;;;;;;;0.93;0.13;;;;;;;19.40;40.50;100392.19;4982875;28;20360;-45
2022/04/20 09:42:21;;;;;;;1.85;0.13;;;;;;;19.40;40.25;100386.91;4984275;28;20038;-44
2022/04/20 09:44:55;;;;;;;0.28;0.10;;;;;;;19.38;40.02;100381.03;4984491;28;20047;-45
2022/04/20 09:50:06;;;;;;;;;;;;;;;19.29;39.82;100386.75;4985510;28;20045;-44
2022/04/20 09:52:42;;;;;;;0.38;0.10;;;;;;;19.30;39.69;100386.53;4985614;28;19925;-45
2022/04/20 09:55:14;;;;;;;1.38;0.10;;;;;;;19.32;39.56;100387.16;4984665;28;20133;-45
2022/04/20 09:57:40;;;;;;;0.30;0.10;;;;;;;19.34;39.22;100379.03;4985136;28;20033;-45
2022/04/20 10:00:12;;;;;;;0.35;0.10;;;;;;;19.33;39.12;100380.03;4984584;28;20046;-45
2022/04/20 10:02:45;;;;;;;0.68;0.10;;;;;;;19.32;39.14;100376.59;4971849;28;20030;-44
2022/04/20 10:05:11;;;;;;;0.20;0.10;;;;;;;19.31;39.12;100369.66;4984634;28;20529;-46
2022/04/20 10:07:37;;;;;;;0.73;0.10;;;;;;;19.32;38.87;100370.47;4982086;28;20092;-45
2022/04/20 10:10:04;;;;;;;0.30;0.10;;;;;;;19.32;38.91;100363.38;4983404;28;20168;-46
2022/04/20 10:12:33;;;;;;;0.57;0.03;;;;;;;19.34;38.89;100363.16;4985095;28;20516;-44
2022/04/20 10:17:49;;;;;;;0.35;0.10;;;;;;;19.31;38.59;100361.75;4984122;28;20076;-45
2022/04/20 10:20:14;;;;;;;1.20;0.10;;;;;;;19.31;38.54;100353.81;4981230;28;20700;-45
2022/04/20 10:22:40;;;;;;;0.28;0.10;;;;;;;19.31;38.54;100359.09;4983072;28;20233;-44
2022/04/20 10:25:07;;;;;;;0.82;0.10;;;;;;;19.30;38.57;100348.75;4981267;28;20038;-47
2022/04/20 10:27:48;;;;;;;0.65;0.10;;;;;;;19.28;38.44;100343.66;4982013;28;20109;-45
2022/04/20 10:30:38;;;;;;;3.50;0.43;;;;;;;19.27;38.44;100336.75;4982453;28;20081;-45
2022/04/20 10:33:12;;;;;;;1.10;0.10;;;;;;;19.28;38.66;100338.38;4983861;28;20042;-42
2022/04/20 10:36:17;;;;;;;1.05;0.10;;;;;;;19.26;39.22;100345.69;4983639;28;20376;-48
2022/04/20 10:38:45;;;;;;;0.73;0.10;;;;;;;19.28;38.97;100332.28;4944518;28;20047;-45
2022/04/20 10:41:19;;;;;;;1.23;0.20;;;;;;;19.26;37.83;100335.13;4938087;28;20058;-44
2022/04/20 10:43:45;;;;;;;0.47;0.10;;;;;;;19.29;37.35;100329.44;4950885;28;20089;-44
2022/04/20 10:46:18;;;;;;;1.00;0.20;;;;;;;19.28;36.78;100319.88;4950291;28;20043;-46
2022/04/20 10:49:02;;;;;;;2.58;0.20;;;;;;;19.30;36.73;100319.69;4949233;28;20042;-49
2022/04/20 10:51:30;;;;;;;1.23;0.20;;;;;;;19.31;36.57;100316.84;4944785;28;20062;-44
2022/04/20 10:54:23;;;;;;;1.45;0.15;;;;;;;19.32;35.96;100320.28;4936703;28;20290;-45
2022/04/20 10:56:50;;;;;;;2.47;0.30;;;;;;;19.32;36.23;100318.47;4938288;29;20051;-44
2022/04/20 10:59:15;;;;;;;3.72;0.50;;;;;;;19.32;36.12;100307.91;4949317;28;20051;-43
2022/04/20 11:02:02;;;;;;;12.65;0.88;;;;;;;19.34;36.73;100312.97;4954137;28;20035;-45
2022/04/20 11:04:48;;;;;;;5.60;0.60;;;;;;;19.43;37.12;100325.75;4955696;28;20039;-44
2022/04/20 11:07:26;;;;;;;2.63;0.60;;;;;;;19.49;36.85;100309.06;4961545;28;20042;-44
2022/04/20 11:10:00;;;;;;;4.63;0.55;;;;;;;19.49;36.92;100310.91;4948478;28;20102;-46
2022/04/20 11:18:45;;;;;;;6.63;0.80;;;;;;;19.47;37.31;100305.81;4969701;28;20113;-44
2022/04/20 11:21:12;;;;;;;1.75;0.43;;;;;;;19.50;36.66;100288.75;4983542;28;20022;-43
2022/04/20 11:23:55;;;;;;;4.43;0.60;;;;;;;19.47;35.71;100287.31;4984707;28;20592;-46
2022/04/20 11:26:32;;;;;;;6.80;0.50;;;;;;;19.50;35.51;100288.75;4979783;28;20562;-45
2022/04/20 11:29:01;;;;;;;2.28;0.60;;;;;;;19.50;35.47;100289.56;4985694;28;20509;-45
2022/04/20 11:31:27;;;;;;;3.75;0.50;;;;;;;19.52;35.41;100278.81;4986507;28;20030;-44
2022/04/20 11:33:53;;;;;;;7.82;0.50;;;;;;;19.54;36.48;100290.81;4982752;28;20057;-43
2022/04/20 11:36:19;;;;;;;2.20;0.57;;;;;;;19.58;37.01;100274.53;4982962;28;20397;-41
2022/04/20 11:38:48;;;;;;;1.15;0.50;;;;;;;19.61;37.98;100274.13;4984627;28;20034;-45
2022/04/20 11:41:15;;;;;;;3.63;0.52;;;;;;;19.66;39.93;100277.75;4986396;28;20101;-44
2022/04/20 11:43:41;;;;;;;3.10;0.55;;;;;;;19.73;43.84;100277.75;4986597;28;20050;-41
2022/04/20 11:46:08;;;;;;;2.47;0.60;;;;;;;19.82;45.05;100279.16;4983577;28;20856;-47
2022/04/20 11:48:38;;;;;;;9.30;1.67;;;;;;;20.05;51.57;100284.72;4982896;28;20034;-47
2022/04/20 11:51:12;;;;;;;9.32;1.77;;;;;;;20.34;56.40;100282.53;4980339;28;20116;-48
2022/04/20 11:53:41;;;;;;;10.10;2.75;;;;;;;20.57;56.96;100276.72;4985473;28;20038;-46
2022/04/20 11:56:09;;;;;;;9.55;1.88;;;;;;;20.68;54.77;100279.50;4983666;28;20462;-45
2022/04/20 11:58:37;;;;;;;3.15;1.00;;;;;;;20.57;50.40;100276.72;4986641;28;20084;-47